createdAt,value
2023-01-30T00:01:04.921Z,4.85
2023-01-30T00:03:31.790Z,3.92
2023-01-30T00:05:58.681Z,5.65
2023-01-30T00:08:25.480Z,4.70
2023-01-30T00:10:52.248Z,5.50
2023-01-30T00:13:19.009Z,5.05
2023-01-30T00:15:45.862Z,2.90
2023-01-30T00:18:12.650Z,4.20
2023-01-30T00:20:39.457Z,4.85
2023-01-30T00:23:06.322Z,5.93
2023-01-30T00:25:34.231Z,6.88
2023-01-30T00:28:01.581Z,6.05
2023-01-30T00:30:29.578Z,7.38
2023-01-30T00:32:57.925Z,4.63
2023-01-30T00:35:28.530Z,3.17
2023-01-30T00:37:59.511Z,4.05
2023-01-30T00:40:27.112Z,2.58
2023-01-30T00:46:03.193Z,4.05
2023-01-30T00:48:30.258Z,4.38
2023-01-30T00:50:57.130Z,4.32
2023-01-30T00:53:23.996Z,2.13
2023-01-30T00:55:54.164Z,7.10
2023-01-30T00:58:21.467Z,3.30
2023-01-30T01:00:48.350Z,4.60
2023-01-30T01:03:15.182Z,3.63
2023-01-30T01:05:42.696Z,3.15
2023-01-30T01:08:09.982Z,2.95
2023-01-30T01:10:36.878Z,2.60
2023-01-30T01:13:03.873Z,2.85
2023-01-30T01:15:31.026Z,3.72
2023-01-30T01:17:57.797Z,2.95
2023-01-30T01:20:26.255Z,3.78
2023-01-30T01:22:54.178Z,2.95
2023-01-30T01:25:21.340Z,3.72
2023-01-30T01:27:48.343Z,3.45
2023-01-30T01:30:16.956Z,5.05
2023-01-30T01:32:44.386Z,6.25
2023-01-30T01:35:11.235Z,3.28
2023-01-30T01:37:38.173Z,3.00
2023-01-30T01:40:24.350Z,3.55
2023-01-30T01:42:51.128Z,4.93
2023-01-30T01:45:24.558Z,7.22
2023-01-30T01:48:11.698Z,4.90
2023-01-30T01:50:49.533Z,4.20
2023-01-30T01:53:17.787Z,3.08
2023-01-30T01:55:45.059Z,3.70
2023-01-30T01:58:14.794Z,3.47
2023-01-30T02:00:41.590Z,3.75
2023-01-30T02:03:11.079Z,4.43
2023-01-30T02:05:40.858Z,4.40
2023-01-30T02:09:00.059Z,2.03
2023-01-30T02:11:29.526Z,3.13
2023-01-30T02:13:56.679Z,4.20
2023-01-30T02:16:23.853Z,2.88
2023-01-30T02:18:50.687Z,3.47
2023-01-30T02:21:52.626Z,4.53
2023-01-30T02:24:31.378Z,2.72
2023-01-30T02:27:14.979Z,3.22
2023-01-30T02:29:44.741Z,3.90
2023-01-30T02:32:31.545Z,3.72
2023-01-30T02:35:19.113Z,4.88
2023-01-30T02:37:55.187Z,5.60
2023-01-30T02:40:50.940Z,2.10
2023-01-30T02:43:35.325Z,6.35
2023-01-30T02:46:16.189Z,2.67
2023-01-30T02:48:57.432Z,2.28
2023-01-30T02:51:30.641Z,2.30
2023-01-30T02:53:57.589Z,2.80
2023-01-30T02:56:24.404Z,3.47
2023-01-30T02:59:02.539Z,4.38
2023-01-30T03:01:39.265Z,2.80
2023-01-30T03:04:11.759Z,4.30
2023-01-30T03:06:55.405Z,3.67
2023-01-30T03:09:23.689Z,4.18
2023-01-30T03:12:18.193Z,3.05
2023-01-30T03:15:18.047Z,5.03
2023-01-30T03:17:46.362Z,3.63
2023-01-30T03:20:16.318Z,3.92
2023-01-30T03:22:43.143Z,5.32
2023-01-30T03:25:11.123Z,2.58
2023-01-30T03:27:37.960Z,2.63
2023-01-30T03:30:06.902Z,4.00
2023-01-30T03:32:33.728Z,2.53
2023-01-30T03:35:00.875Z,3.60
2023-01-30T03:37:27.760Z,1.50
2023-01-30T03:39:54.657Z,5.07
2023-01-30T03:42:21.700Z,5.57
2023-01-30T03:44:48.512Z,3.10
2023-01-30T03:47:15.339Z,3.83
2023-01-30T03:49:42.315Z,5.90
2023-01-30T03:52:09.150Z,3.08
2023-01-30T03:54:35.943Z,5.45
2023-01-30T03:57:03.757Z,4.07
2023-01-30T03:59:31.561Z,2.40
2023-01-30T04:04:32.675Z,4.07
2023-01-30T04:07:03.844Z,5.97
2023-01-30T04:09:31.844Z,3.88
2023-01-30T04:11:58.921Z,3.90
2023-01-30T04:14:29.631Z,5.57
2023-01-30T04:17:22.667Z,3.65
2023-01-30T04:20:12.157Z,3.60
2023-01-30T04:22:44.867Z,2.10
2023-01-30T04:25:11.753Z,3.25
2023-01-30T04:27:38.866Z,4.40
2023-01-30T04:30:15.046Z,4.65
2023-01-30T04:32:42.715Z,5.85
2023-01-30T04:35:10.992Z,4.40
2023-01-30T04:37:38.803Z,4.93
2023-01-30T04:40:07.064Z,3.58
2023-01-30T04:42:35.191Z,6.63
2023-01-30T04:45:21.983Z,4.35
2023-01-30T04:47:50.576Z,4.60
2023-01-30T04:50:17.732Z,3.78
2023-01-30T04:52:44.520Z,5.32
2023-01-30T04:55:12.239Z,3.90
2023-01-30T04:57:39.110Z,2.55
2023-01-30T05:00:07.012Z,7.30
2023-01-30T05:02:36.468Z,3.95
2023-01-30T05:05:03.249Z,2.95
2023-01-30T05:07:30.061Z,4.78
2023-01-30T05:09:58.050Z,4.70
2023-01-30T05:12:24.887Z,5.03
2023-01-30T05:14:51.666Z,7.15
2023-01-30T05:17:18.825Z,5.38
2023-01-30T05:19:45.642Z,5.50
2023-01-30T05:22:12.506Z,5.65
2023-01-30T05:24:39.258Z,4.50
2023-01-30T05:27:06.076Z,5.20
2023-01-30T05:29:32.909Z,6.22
2023-01-30T05:31:59.687Z,4.10
2023-01-30T05:34:26.522Z,6.55
2023-01-30T05:36:53.318Z,11.23
2023-01-30T05:39:20.104Z,4.95
2023-01-30T05:41:46.889Z,5.10
2023-01-30T05:44:13.703Z,4.43
2023-01-30T05:46:40.620Z,5.97
2023-01-30T05:49:07.550Z,3.10
2023-01-30T05:51:34.359Z,3.72
2023-01-30T05:54:01.100Z,7.45
2023-01-30T05:56:33.104Z,5.45
2023-01-30T05:59:03.162Z,3.40
2023-01-30T06:01:30.183Z,8.32
2023-01-30T06:03:58.382Z,3.08
2023-01-30T06:06:25.290Z,6.03
2023-01-30T06:08:55.768Z,2.53
2023-01-30T06:11:22.768Z,2.65
2023-01-30T06:13:49.639Z,4.68
2023-01-30T06:16:17.044Z,6.65
2023-01-30T06:18:44.003Z,5.43
2023-01-30T06:21:10.858Z,1.98
2023-01-30T06:23:38.848Z,4.97
2023-01-30T06:26:08.120Z,1.92
2023-01-30T06:28:36.460Z,7.20
2023-01-30T06:31:03.457Z,2.55
2023-01-30T06:33:30.353Z,3.50
2023-01-30T06:35:57.178Z,3.83
2023-01-30T06:38:25.613Z,2.88
2023-01-30T06:40:52.924Z,4.05
2023-01-30T06:43:20.760Z,5.35
2023-01-30T06:45:47.587Z,3.42
2023-01-30T06:48:14.496Z,5.00
2023-01-30T06:50:41.308Z,5.25
2023-01-30T06:53:08.423Z,5.05
2023-01-30T06:55:35.718Z,5.47
2023-01-30T06:58:08.193Z,6.68
2023-01-30T07:00:35.660Z,7.70
2023-01-30T07:03:03.524Z,4.90
2023-01-30T07:05:30.386Z,4.20
2023-01-30T07:07:57.198Z,6.35
2023-01-30T07:10:26.125Z,3.92
2023-01-30T07:12:53.568Z,3.97
2023-01-30T07:15:20.645Z,3.92
2023-01-30T07:17:47.651Z,4.10
2023-01-30T07:20:14.556Z,4.13
2023-01-30T07:22:41.442Z,7.30
2023-01-30T07:25:08.504Z,2.95
2023-01-30T07:27:35.349Z,3.42
2023-01-30T07:30:02.230Z,4.47
2023-01-30T07:32:29.483Z,8.55
2023-01-30T07:34:56.358Z,14.10
2023-01-30T07:37:23.107Z,6.90
2023-01-30T07:39:58.516Z,7.43
2023-01-30T07:42:25.366Z,4.53
2023-01-30T07:44:53.372Z,6.05
2023-01-30T07:47:21.172Z,5.10
2023-01-30T07:49:48.034Z,4.25
2023-01-30T07:52:14.935Z,3.72
2023-01-30T07:54:43.079Z,4.10
2023-01-30T07:57:09.865Z,8.05
2023-01-30T07:59:36.736Z,7.80
2023-01-30T08:02:03.588Z,3.00
2023-01-30T08:04:30.395Z,6.20
2023-01-30T08:06:57.361Z,5.10
2023-01-30T08:09:24.131Z,4.40
2023-01-30T08:11:50.907Z,6.30
2023-01-30T08:14:17.647Z,6.03
2023-01-30T08:16:44.564Z,3.78
2023-01-30T08:19:11.374Z,5.75
2023-01-30T08:21:38.239Z,7.60
2023-01-30T08:24:05.445Z,7.10
2023-01-30T08:26:32.369Z,5.00
2023-01-30T08:28:59.191Z,5.35
2023-01-30T08:31:26.282Z,3.50
2023-01-30T08:33:53.064Z,3.22
2023-01-30T08:36:20.125Z,5.10
2023-01-30T08:38:46.864Z,5.55
2023-01-30T08:41:13.668Z,4.38
2023-01-30T08:43:40.475Z,4.88
2023-01-30T08:46:07.334Z,4.95
2023-01-30T08:48:47.685Z,3.78
2023-01-30T08:51:15.580Z,3.15
2023-01-30T08:53:42.380Z,3.70
2023-01-30T08:56:09.185Z,5.20
2023-01-30T08:58:36.061Z,5.10
2023-01-30T09:01:06.902Z,8.35
2023-01-30T09:03:33.695Z,7.07
2023-01-30T09:06:00.454Z,7.53
2023-01-30T09:08:27.477Z,4.93
2023-01-30T09:11:01.087Z,5.43
2023-01-30T09:15:54.995Z,11.55
2023-01-30T09:18:21.778Z,8.95
2023-01-30T09:20:48.787Z,6.72
2023-01-30T09:23:15.608Z,5.07
2023-01-30T09:25:45.353Z,7.45
2023-01-30T09:28:12.248Z,4.00
2023-01-30T09:30:39.105Z,5.78
2023-01-30T09:33:05.906Z,5.07
2023-01-30T09:35:32.681Z,5.85
2023-01-30T09:38:00.449Z,8.25
2023-01-30T09:40:28.394Z,6.65
2023-01-30T09:43:17.894Z,8.00
2023-01-30T09:45:45.507Z,8.63
2023-01-30T09:48:30.247Z,3.75
2023-01-30T09:51:15.908Z,6.38
2023-01-30T09:54:01.310Z,6.47
2023-01-30T09:56:28.127Z,5.90
2023-01-30T09:58:57.182Z,7.10
2023-01-30T10:01:29.383Z,6.32
2023-01-30T10:04:09.212Z,6.57
2023-01-30T10:06:39.147Z,8.93
2023-01-30T10:09:24.564Z,7.22
2023-01-30T10:11:56.175Z,13.13
2023-01-30T10:14:31.889Z,12.52
2023-01-30T10:17:03.323Z,5.53
2023-01-30T10:19:51.245Z,8.15
2023-01-30T10:22:49.107Z,6.00
2023-01-30T10:25:30.995Z,6.57
2023-01-30T10:28:12.344Z,5.15
2023-01-30T10:30:39.398Z,5.35
2023-01-30T10:33:22.926Z,7.03
2023-01-30T10:36:00.267Z,5.57
2023-01-30T10:38:41.603Z,6.38
2023-01-30T10:41:29.200Z,6.60
2023-01-30T10:44:14.431Z,7.72
2023-01-30T10:46:53.110Z,7.30
2023-01-30T10:49:38.449Z,6.03
2023-01-30T10:52:26.970Z,5.82
2023-01-30T10:55:28.151Z,4.45
2023-01-30T10:58:18.041Z,6.75
2023-01-30T11:00:49.717Z,8.27
2023-01-30T11:03:25.457Z,7.65
2023-01-30T11:05:54.312Z,5.60
2023-01-30T11:08:28.892Z,7.18
2023-01-30T11:10:56.001Z,7.95
2023-01-30T11:13:26.622Z,10.05
2023-01-30T11:15:55.630Z,6.43
2023-01-30T11:19:14.102Z,6.55
2023-01-30T11:21:23.428Z,6.18
2023-01-30T11:23:51.973Z,8.82
2023-01-30T11:26:26.105Z,8.57
2023-01-30T11:28:56.316Z,6.28
2023-01-30T11:31:41.059Z,6.72
2023-01-30T11:34:21.052Z,6.18
2023-01-30T11:36:47.981Z,5.85
2023-01-30T11:39:15.870Z,6.03
2023-01-30T11:41:43.763Z,4.18
2023-01-30T11:44:10.911Z,4.15
2023-01-30T11:46:39.211Z,5.18
2023-01-30T11:49:44.954Z,10.60
2023-01-30T11:52:03.776Z,3.38
2023-01-30T11:54:44.427Z,5.20
2023-01-30T11:57:13.399Z,6.05
2023-01-30T11:59:57.256Z,6.55
2023-01-30T12:05:04.561Z,5.80
2023-01-30T12:07:33.413Z,4.75
2023-01-30T12:10:00.235Z,9.63
2023-01-30T12:12:37.702Z,4.80
2023-01-30T12:15:16.677Z,4.30
2023-01-30T12:18:01.707Z,5.47
2023-01-30T12:20:46.319Z,4.82
2023-01-30T12:23:17.150Z,10.02
2023-01-30T12:25:45.506Z,5.15
2023-01-30T12:28:18.422Z,7.28
2023-01-30T12:30:51.500Z,11.15
2023-01-30T12:33:19.465Z,6.00
2023-01-30T12:36:02.243Z,4.95
2023-01-30T12:38:38.425Z,4.70
2023-01-30T12:41:08.006Z,6.13
2023-01-30T12:44:25.420Z,6.80
2023-01-30T12:47:22.127Z,8.02
2023-01-30T12:50:13.097Z,8.02
2023-01-30T12:52:48.982Z,3.17
2023-01-30T12:55:57.605Z,6.03
2023-01-30T12:58:45.965Z,6.05
2023-01-30T13:01:43.303Z,8.27
2023-01-30T13:04:19.665Z,7.55
2023-01-30T13:06:56.532Z,5.63
2023-01-30T13:09:35.315Z,7.88
2023-01-30T13:12:14.274Z,4.18
2023-01-30T13:14:52.903Z,4.18
2023-01-30T13:17:34.259Z,7.72
2023-01-30T13:20:21.409Z,5.35
2023-01-30T13:23:20.883Z,5.82
2023-01-30T13:26:16.675Z,6.28
2023-01-30T13:28:56.141Z,4.10
2023-01-30T13:31:28.215Z,7.63
2023-01-30T13:34:10.688Z,3.60
2023-01-30T13:36:40.459Z,5.03
2023-01-30T13:41:47.253Z,3.78
2023-01-30T13:44:20.052Z,5.00
2023-01-30T13:46:47.412Z,7.20
2023-01-30T13:49:56.134Z,5.18
2023-01-30T13:52:31.891Z,4.00
2023-01-30T13:55:25.752Z,4.18
2023-01-30T13:57:56.636Z,8.60
2023-01-30T14:00:34.037Z,6.45
2023-01-30T14:03:03.684Z,5.05
2023-01-30T14:05:52.701Z,9.55
2023-01-30T14:08:25.469Z,5.70
2023-01-30T14:10:52.282Z,4.60
2023-01-30T14:13:19.073Z,4.47
2023-01-30T14:16:12.409Z,4.47
2023-01-30T14:18:39.185Z,10.85
2023-01-30T14:21:24.531Z,4.75
2023-01-30T14:24:00.787Z,7.22
2023-01-30T14:26:53.106Z,8.63
2023-01-30T14:29:38.121Z,9.13
2023-01-30T14:32:14.147Z,4.53
2023-01-30T14:34:48.324Z,5.18
2023-01-30T14:37:39.303Z,3.58
2023-01-30T14:40:31.080Z,2.85
2023-01-30T14:43:13.168Z,4.80
2023-01-30T14:45:45.352Z,5.90
2023-01-30T14:48:41.632Z,4.50
2023-01-30T14:51:39.983Z,5.68
2023-01-30T14:54:13.247Z,6.18
2023-01-30T14:59:17.427Z,5.63
2023-01-30T15:01:56.478Z,7.28
2023-01-30T15:04:23.324Z,6.65
2023-01-30T15:06:50.221Z,4.40
2023-01-30T15:09:21.609Z,5.93
2023-01-30T15:11:58.905Z,5.70
2023-01-30T15:14:30.968Z,5.50
2023-01-30T15:17:22.626Z,6.13
2023-01-30T15:20:15.756Z,6.00
2023-01-30T15:22:55.108Z,6.63
2023-01-30T15:25:30.727Z,6.03
2023-01-30T15:28:17.414Z,6.68
2023-01-30T15:31:11.553Z,5.97
2023-01-30T15:33:46.341Z,8.25
2023-01-30T15:36:25.897Z,4.35
2023-01-30T15:39:03.543Z,6.88
2023-01-30T15:41:32.049Z,7.88
2023-01-30T15:43:58.834Z,4.38
2023-01-30T15:47:03.265Z,7.10
2023-01-30T15:52:19.927Z,7.00
2023-01-30T15:54:51.639Z,7.95
2023-01-30T15:57:25.474Z,11.07
2023-01-30T15:59:53.512Z,10.32
2023-01-30T16:02:30.853Z,8.18
2023-01-30T16:05:18.118Z,4.15
2023-01-30T16:07:45.750Z,7.78
2023-01-30T16:10:16.452Z,5.32
2023-01-30T16:12:44.181Z,5.93
2023-01-30T16:15:19.917Z,8.55
2023-01-30T16:17:54.141Z,8.48
2023-01-30T16:20:21.114Z,4.85
2023-01-30T16:22:48.091Z,7.63
2023-01-30T16:25:24.605Z,6.38
2023-01-30T16:27:53.027Z,9.77
2023-01-30T16:30:25.038Z,5.22
2023-01-30T16:32:53.071Z,9.48
2023-01-30T16:35:27.482Z,8.57
2023-01-30T16:37:56.248Z,7.47
2023-01-30T16:40:24.864Z,7.03
2023-01-30T16:43:19.344Z,8.48
2023-01-30T16:45:55.460Z,6.63
2023-01-30T16:48:34.179Z,11.02
2023-01-30T16:51:05.102Z,6.45
2023-01-30T16:53:32.328Z,8.68
2023-01-30T16:56:03.664Z,9.38
2023-01-30T16:58:34.694Z,7.07
2023-01-30T17:01:03.280Z,10.55
2023-01-30T17:03:33.664Z,6.80
2023-01-30T17:06:01.714Z,5.95
2023-01-30T17:08:31.576Z,10.18
2023-01-30T17:10:59.271Z,7.65
2023-01-30T17:13:41.571Z,10.98
2023-01-30T17:16:27.744Z,9.18
2023-01-30T17:18:56.098Z,9.90
2023-01-30T17:21:24.544Z,4.05
2023-01-30T17:24:04.887Z,6.03
2023-01-30T17:26:31.973Z,7.30
2023-01-30T17:28:58.782Z,5.40
2023-01-30T17:31:25.744Z,8.95
2023-01-30T17:33:52.596Z,7.55
2023-01-30T17:36:27.397Z,11.93
2023-01-30T17:38:54.366Z,12.93
2023-01-30T17:41:23.437Z,9.88
2023-01-30T17:43:51.009Z,7.72
2023-01-30T17:46:18.076Z,8.60
2023-01-30T17:48:45.017Z,11.40
2023-01-30T17:51:14.291Z,9.27
2023-01-30T17:53:41.781Z,7.85
2023-01-30T17:56:15.714Z,12.02
2023-01-30T17:58:42.518Z,13.48
2023-01-30T18:01:09.429Z,12.35
2023-01-30T18:03:36.267Z,12.90
2023-01-30T18:06:03.053Z,10.27
2023-01-30T18:08:29.820Z,13.45
2023-01-30T18:10:56.637Z,7.95
2023-01-30T18:13:23.494Z,11.43
2023-01-30T18:15:50.430Z,11.43
2023-01-30T18:18:17.326Z,9.55
2023-01-30T18:20:44.106Z,9.73
2023-01-30T18:23:10.957Z,10.50
2023-01-30T18:25:37.709Z,10.65
2023-01-30T18:28:06.754Z,8.77
2023-01-30T18:30:33.607Z,12.68
2023-01-30T18:33:00.387Z,12.23
2023-01-30T18:35:27.496Z,20.40
2023-01-30T18:37:55.774Z,14.45
2023-01-30T18:40:24.258Z,23.70
2023-01-30T18:42:51.109Z,16.73
2023-01-30T18:45:17.941Z,16.50
2023-01-30T18:47:44.800Z,20.55
2023-01-30T18:50:11.908Z,25.58
2023-01-30T18:52:38.724Z,30.17
2023-01-30T18:55:05.915Z,24.02
2023-01-30T18:57:32.721Z,19.80
2023-01-30T18:59:59.514Z,17.15
2023-01-30T19:02:26.412Z,18.25
2023-01-30T19:04:53.163Z,12.38
2023-01-30T19:07:19.968Z,12.60
2023-01-30T19:09:46.920Z,11.57
2023-01-30T19:12:32.461Z,18.02
2023-01-30T19:14:59.347Z,9.95
2023-01-30T19:17:26.159Z,8.55
2023-01-30T19:19:52.942Z,11.25
2023-01-30T19:22:19.721Z,13.15
2023-01-30T19:24:46.587Z,11.73
2023-01-30T19:27:13.954Z,11.90
2023-01-30T19:29:41.640Z,10.98
2023-01-30T19:32:09.431Z,12.80
2023-01-30T19:34:37.144Z,12.18
2023-01-30T19:37:04.032Z,10.93
2023-01-30T19:39:30.879Z,8.93
2023-01-30T19:41:57.636Z,9.18
2023-01-30T19:44:24.469Z,19.90
2023-01-30T19:46:51.312Z,13.43
2023-01-30T19:49:18.102Z,9.10
2023-01-30T19:51:44.881Z,13.85
2023-01-30T19:54:11.928Z,10.30
2023-01-30T19:56:40.880Z,7.68
2023-01-30T19:59:08.111Z,8.48
2023-01-30T20:01:37.600Z,11.57
2023-01-30T20:04:05.267Z,9.93
2023-01-30T20:06:32.881Z,11.02
2023-01-30T20:09:05.287Z,10.50
2023-01-30T20:11:33.426Z,16.33
2023-01-30T20:14:01.288Z,26.08
2023-01-30T20:16:29.358Z,12.27
2023-01-30T20:19:06.642Z,17.13
2023-01-30T20:21:33.564Z,12.13
2023-01-30T20:24:01.006Z,12.65
2023-01-30T20:26:29.826Z,12.80
2023-01-30T20:28:57.041Z,11.63
2023-01-30T20:31:25.339Z,14.10
2023-01-30T20:33:53.036Z,11.20
2023-01-30T20:36:20.163Z,12.43
2023-01-30T20:38:47.876Z,11.55
2023-01-30T20:41:15.923Z,8.80
2023-01-30T20:43:47.268Z,10.10
2023-01-30T20:46:16.183Z,9.88
2023-01-30T20:48:43.104Z,13.57
2023-01-30T20:51:14.559Z,11.65
2023-01-30T20:53:49.694Z,10.93
2023-01-30T20:56:16.670Z,14.32
2023-01-30T20:58:43.569Z,14.23
2023-01-30T21:01:18.448Z,8.70
2023-01-30T21:03:46.160Z,10.15
2023-01-30T21:06:14.162Z,9.70
2023-01-30T21:09:01.197Z,7.65
2023-01-30T21:11:28.054Z,11.63
2023-01-30T21:13:54.862Z,11.57
2023-01-30T21:16:23.591Z,9.18
2023-01-30T21:18:53.569Z,11.30
2023-01-30T21:21:34.843Z,11.98
2023-01-30T21:24:03.629Z,8.82
2023-01-30T21:26:31.570Z,9.38
2023-01-30T21:29:02.475Z,11.75
2023-01-30T21:31:30.204Z,13.60
2023-01-30T21:33:57.554Z,29.90
2023-01-30T21:36:24.624Z,17.25
2023-01-30T21:39:10.052Z,20.08
2023-01-30T21:41:57.542Z,12.40
2023-01-30T21:44:25.907Z,14.48
2023-01-30T21:46:54.295Z,14.70
2023-01-30T21:49:21.200Z,12.63
2023-01-30T21:51:48.638Z,13.90
2023-01-30T21:54:17.011Z,13.43
2023-01-30T21:56:44.247Z,14.10
2023-01-30T21:59:11.188Z,10.88
2023-01-30T22:01:38.825Z,15.57
2023-01-30T22:04:08.640Z,9.30
2023-01-30T22:06:36.458Z,29.60
2023-01-30T22:09:03.494Z,12.77
2023-01-30T22:11:30.392Z,13.02
2023-01-30T22:13:57.312Z,9.35
2023-01-30T22:16:26.041Z,11.95
2023-01-30T22:18:58.719Z,14.68
2023-01-30T22:21:27.543Z,11.77
2023-01-30T22:23:54.975Z,10.88
2023-01-30T22:26:23.084Z,7.63
2023-01-30T22:28:54.344Z,11.45
2023-01-30T22:31:21.441Z,12.77
2023-01-30T22:33:53.761Z,6.47
2023-01-30T22:36:22.406Z,9.60
2023-01-30T22:38:49.439Z,9.70
2023-01-30T22:41:18.443Z,10.55
2023-01-30T22:43:53.276Z,9.43
2023-01-30T22:46:20.119Z,12.57
2023-01-30T22:48:47.010Z,8.57
2023-01-30T22:51:18.861Z,13.15
2023-01-30T22:53:50.148Z,13.07
2023-01-30T22:56:19.474Z,11.57
2023-01-30T22:58:46.490Z,13.77
2023-01-30T23:01:20.545Z,11.93
2023-01-30T23:03:48.508Z,15.65
2023-01-30T23:06:16.420Z,11.43
2023-01-30T23:08:44.702Z,9.65
2023-01-30T23:11:12.689Z,11.60
2023-01-30T23:13:41.386Z,9.45
2023-01-30T23:16:08.265Z,9.90
2023-01-30T23:18:53.999Z,15.52
2023-01-30T23:21:37.124Z,9.15
2023-01-30T23:24:14.382Z,8.02
2023-01-30T23:26:43.217Z,5.53
2023-01-30T23:29:13.088Z,8.95
2023-01-30T23:31:40.392Z,8.65
2023-01-30T23:34:08.310Z,6.25
2023-01-30T23:36:35.375Z,7.88
2023-01-30T23:39:02.450Z,8.02
2023-01-30T23:41:30.644Z,8.00
2023-01-30T23:43:57.807Z,6.50
2023-01-30T23:46:29.671Z,12.75
2023-01-30T23:48:57.928Z,10.00
2023-01-30T23:51:26.058Z,6.45
2023-01-30T23:53:53.354Z,7.70
2023-01-30T23:56:20.904Z,4.35
2023-01-30T23:58:48.988Z,7.80
